Highland Park, Texas
Current Conditions -  °F | °C
As of 10:53 PM on Wednesday 26 Nov 2014 (Local Time) from KDAL Reporting Station
Clear Clear  
Wind Chill: 50°   Ceiling: Unl
Heat Index: 50°   Visibility: 10mi
Dew Point: 33°   Wind: 9mph
Humidity: 52%   Direction: 360°N
Pressure: 30.38"   Gusts: NA
Location:  32.8486°N, 96.8258°W
Report Text: KDAL 270453Z 36008KT 10SM CLR 10/01 A3038 RMK AO2 SLP286 T01000006
Loading
Personal Weather Stations






























Interactive Weather Map New forecast layout! Learn more

10-Day Weather Forecast

Advertisements
Track Severe Weather on mobile